Time;durP1;ratioP1;P1;durP2;ratioP2;P2;SDS_P1;SDS_P2;PMS_P1;PMS_P2;Temp;Humidity;BMP_temperature;BMP_pressure;BME280_temperature;BME280_humidity;BME280_pressure;Samples;Min_cycle;Max_cycle;Signal;HPM_P1;HPM_P2
2021/12/18 00:01:07;;;;;;;5.78;5.28;;;18.30;42.20;;;;;;5036512;28;20192;-70
2021/12/18 00:03:34;;;;;;;5.07;4.68;;;18.30;42.20;;;;;;5036461;28;20200;-70
2021/12/18 00:06:01;;;;;;;5.93;5.47;;;18.30;42.20;;;;;;5035906;28;20232;-70
2021/12/18 00:08:30;;;;;;;5.00;4.60;;;18.30;42.10;;;;;;5036488;28;20222;-71
2021/12/18 00:10:57;;;;;;;5.70;5.28;;;18.20;42.00;;;;;;5036817;28;20223;-70
2021/12/18 00:13:24;;;;;;;5.82;5.18;;;18.20;42.10;;;;;;5051706;28;20286;-70
2021/12/18 00:15:51;;;;;;;5.63;5.13;;;18.20;42.10;;;;;;5036600;28;20203;-70
2021/12/18 00:18:18;;;;;;;5.15;4.75;;;18.20;42.20;;;;;;5034889;28;20216;-70
2021/12/18 00:20:46;;;;;;;5.20;4.80;;;18.20;42.70;;;;;;5034724;28;20200;-71
2021/12/18 00:23:13;;;;;;;6.10;5.60;;;18.20;42.10;;;;;;5035872;28;20246;-70
2021/12/18 00:25:41;;;;;;;6.35;5.85;;;18.10;42.00;;;;;;5035723;28;20208;-70
2021/12/18 00:28:08;;;;;;;5.38;4.97;;;18.10;42.10;;;;;;5035962;28;20296;-70
2021/12/18 00:30:35;;;;;;;5.57;5.18;;;18.10;42.00;;;;;;5034704;28;20188;-71
2021/12/18 00:33:06;;;;;;;5.72;5.30;;;18.10;42.10;;;;;;5034419;28;20687;-70
2021/12/18 00:35:33;;;;;;;5.50;5.10;;;18.10;42.20;;;;;;5051202;28;20192;-71
2021/12/18 00:38:00;;;;;;;5.90;5.40;;;18.00;42.00;;;;;;5034199;28;20244;-71
2021/12/18 00:40:43;;;;;;;6.15;5.55;;;18.00;42.00;;;;;;5036004;28;20274;-71
2021/12/18 00:43:22;;;;;;;5.20;4.80;;;18.00;42.20;;;;;;5035732;28;20263;-70
2021/12/18 00:45:50;;;;;;;5.45;4.95;;;18.00;42.20;;;;;;5050729;28;20610;-70
2021/12/18 00:48:17;;;;;;;5.10;4.70;;;17.90;42.20;;;;;;5035509;28;20220;-70
2021/12/18 00:50:44;;;;;;;5.90;5.40;;;17.90;42.20;;;;;;5051267;28;20200;-70
2021/12/18 00:53:11;;;;;;;5.22;4.82;;;17.90;42.30;;;;;;5034141;28;20204;-70
2021/12/18 00:55:38;;;;;;;5.47;5.07;;;17.90;42.30;;;;;;5035237;28;20188;-70
2021/12/18 00:58:06;;;;;;;6.00;5.50;;;17.90;42.30;;;;;;5035574;28;20636;-71
2021/12/18 01:00:38;;;;;;;5.25;4.85;;;17.90;42.80;;;;;;5035363;28;20227;-70
2021/12/18 01:03:13;;;;;;;5.70;5.20;;;17.80;42.30;;;;;;5035564;28;20192;-71
2021/12/18 01:05:41;;;;;;;5.30;4.90;;;17.80;42.20;;;;;;5033942;28;20230;-70
2021/12/18 01:08:08;;;;;;;5.13;4.72;;;17.80;42.30;;;;;;5034186;28;20592;-70
2021/12/18 01:10:50;;;;;;;5.80;5.30;;;17.80;42.40;;;;;;5034496;28;20231;-70
2021/12/18 01:13:22;;;;;;;5.38;4.90;;;17.80;42.40;;;;;;5037108;28;20586;-70
2021/12/18 01:15:54;;;;;;;6.22;5.72;;;17.80;42.30;;;;;;5036703;28;20188;-70
2021/12/18 01:23:50;;;;;;;6.07;5.55;;;17.70;42.40;;;;;;5039956;28;20547;-70
2021/12/18 01:26:18;;;;;;;5.70;5.22;;;17.70;42.40;;;;;;5034855;28;20310;-70
2021/12/18 01:28:45;;;;;;;5.45;5.05;;;17.70;42.50;;;;;;5034081;28;20357;-70
2021/12/18 01:31:15;;;;;;;5.82;5.32;;;17.70;42.50;;;;;;5035874;28;20208;-71
2021/12/18 01:33:43;;;;;;;6.20;5.70;;;17.60;42.50;;;;;;5050646;28;20226;-70
2021/12/18 01:36:10;;;;;;;5.25;4.85;;;17.60;42.50;;;;;;5034253;28;20208;-70
2021/12/18 01:38:37;;;;;;;5.35;4.95;;;17.60;42.50;;;;;;5050280;28;20269;-70
2021/12/18 01:41:04;;;;;;;5.80;5.40;;;17.60;43.00;;;;;;5033259;28;20215;-70
2021/12/18 01:46:59;;;;;;;5.20;4.80;;;17.60;42.50;;;;;;5033110;28;20227;-70
2021/12/18 01:52:19;;;;;;;5.70;5.20;;;17.50;42.30;;;;;;5034437;28;20176;-70
2021/12/18 01:54:46;;;;;;;5.53;5.13;;;17.50;42.50;;;;;;5033561;28;20199;-71
2021/12/18 01:57:13;;;;;;;5.85;5.35;;;17.50;42.50;;;;;;5049918;28;20266;-70
2021/12/18 01:59:43;;;;;;;5.70;5.20;;;17.50;42.70;;;;;;5033131;28;20235;-70
2021/12/18 02:02:11;;;;;;;5.43;5.03;;;17.50;42.40;;;;;;5049942;28;20207;-70
2021/12/18 02:04:38;;;;;;;5.82;5.32;;;17.50;42.60;;;;;;5033123;28;20565;-70
2021/12/18 02:07:07;;;;;;;5.63;5.22;;;17.50;42.50;;;;;;5034406;28;20196;-70
2021/12/18 02:09:51;;;;;;;5.95;5.45;;;17.40;42.50;;;;;;5032931;28;20204;-70
2021/12/18 02:12:19;;;;;;;5.32;4.93;;;17.40;42.50;;;;;;5034244;28;20632;-70
2021/12/18 02:20:25;;;;;;;5.45;5.05;;;17.40;42.10;;;;;;5032695;28;20196;-70
2021/12/18 02:22:54;;;;;;;6.00;5.50;;;17.30;42.50;;;;;;5033803;28;20227;-71
2021/12/18 02:25:23;;;;;;;5.45;5.03;;;17.30;42.60;;;;;;5034124;28;20649;-70
2021/12/18 02:27:51;;;;;;;6.10;5.60;;;17.40;42.70;;;;;;5032493;28;20212;-71
2021/12/18 02:30:20;;;;;;;5.90;5.43;;;17.30;42.60;;;;;;5049263;28;20192;-70
2021/12/18 02:32:48;;;;;;;5.80;5.30;;;17.30;42.60;;;;;;5049210;28;20200;-70
2021/12/18 02:35:27;;;;;;;6.43;5.93;;;17.30;42.60;;;;;;5033766;28;20659;-70
2021/12/18 02:38:07;;;;;;;6.20;5.70;;;17.30;42.70;;;;;;5049115;28;20220;-70
2021/12/18 02:43:28;;;;;;;5.97;5.47;;;17.20;42.50;;;;;;5033872;28;20184;-70
2021/12/18 02:45:59;;;;;;;5.63;5.15;;;17.20;42.80;;;;;;5033410;28;20631;-70
2021/12/18 02:48:27;;;;;;;5.93;5.50;;;17.20;42.70;;;;;;5032214;28;20730;-70
2021/12/18 02:50:56;;;;;;;5.95;5.45;;;17.20;42.80;;;;;;5032350;28;20587;-70
2021/12/18 02:53:24;;;;;;;5.75;5.25;;;17.20;42.60;;;;;;5032226;28;20303;-71
2021/12/18 02:55:55;;;;;;;5.63;5.13;;;17.20;42.70;;;;;;5049433;28;20675;-70
2021/12/18 02:58:22;;;;;;;5.68;5.20;;;17.20;42.60;;;;;;5035933;28;20589;-70
2021/12/18 03:00:50;;;;;;;5.63;5.13;;;17.20;42.70;;;;;;5036040;28;20220;-70
2021/12/18 03:03:18;;;;;;;5.72;5.25;;;17.20;42.80;;;;;;5036060;28;20295;-70
2021/12/18 03:05:54;;;;;;;5.18;4.78;;;17.20;42.80;;;;;;5037516;28;20243;-70
2021/12/18 03:08:36;;;;;;;6.03;5.53;;;17.20;42.80;;;;;;5036239;28;20696;-70
2021/12/18 03:22:51;;;;;;;6.05;5.55;;;17.10;42.80;;;;;;5039207;28;20761;-68
2021/12/18 03:25:23;;;;;;;6.20;5.70;;;17.10;42.80;;;;;;5039146;28;20222;-68
2021/12/18 03:27:50;;;;;;;5.88;5.38;;;17.10;42.80;;;;;;5039394;28;20226;-68
2021/12/18 03:30:17;;;;;;;5.50;5.10;;;17.00;42.80;;;;;;5039032;28;20199;-68
2021/12/18 03:32:45;;;;;;;6.00;5.50;;;17.00;42.80;;;;;;5038681;28;20207;-68
2021/12/18 03:35:12;;;;;;;5.57;5.13;;;17.00;42.80;;;;;;5056725;28;20242;-68
2021/12/18 03:37:39;;;;;;;5.65;5.22;;;17.00;42.90;;;;;;5056441;28;20282;-68
2021/12/18 03:40:08;;;;;;;6.10;5.60;;;17.00;42.90;;;;;;5038663;28;20202;-68
2021/12/18 03:42:36;;;;;;;6.15;5.65;;;17.00;42.90;;;;;;5038843;28;20199;-68
2021/12/18 03:45:04;;;;;;;5.53;5.03;;;17.00;42.80;;;;;;5038885;28;20567;-68
2021/12/18 03:47:31;;;;;;;5.43;4.95;;;17.00;43.00;;;;;;5039180;28;20195;-68
2021/12/18 03:49:58;;;;;;;5.40;5.00;;;17.00;43.00;;;;;;5038830;28;20674;-68
2021/12/18 03:52:25;;;;;;;5.50;5.10;;;16.90;42.80;;;;;;5056365;28;20191;-68
2021/12/18 03:54:53;;;;;;;6.03;5.53;;;16.90;42.90;;;;;;5038532;28;20246;-68
2021/12/18 03:57:20;;;;;;;6.30;5.78;;;16.90;42.90;;;;;;5038843;28;20195;-69
2021/12/18 03:59:49;;;;;;;5.70;5.20;;;16.90;42.90;;;;;;5038555;28;20290;-69
2021/12/18 04:02:15;;;;;;;6.15;5.55;;;16.90;42.90;;;;;;5056672;28;20655;-68
2021/12/18 04:04:43;;;;;;;5.57;5.18;;;16.90;43.00;;;;;;5038594;28;20216;-68
2021/12/18 04:07:10;;;;;;;5.35;4.95;;;16.90;42.90;;;;;;5038259;28;20211;-68
2021/12/18 04:09:37;;;;;;;5.80;5.30;;;16.80;42.80;;;;;;5038679;28;20290;-68
2021/12/18 04:12:06;;;;;;;5.28;4.88;;;16.90;43.00;;;;;;5038432;28;20204;-68
2021/12/18 04:14:33;;;;;;;6.68;5.80;;;16.80;43.00;;;;;;5038251;28;20219;-68
2021/12/18 04:17:03;;;;;;;5.35;4.85;;;16.90;42.80;;;;;;5038320;28;20257;-69
2021/12/18 04:19:30;;;;;;;6.80;6.13;;;16.90;43.10;;;;;;5056030;28;20208;-69
2021/12/18 04:21:57;;;;;;;6.28;5.68;;;16.80;42.80;;;;;;5038181;28;20191;-68
2021/12/18 04:24:24;;;;;;;6.20;5.60;;;16.80;42.70;;;;;;5038130;28;20307;-68
2021/12/18 04:26:51;;;;;;;6.00;5.50;;;16.90;42.70;;;;;;5038356;28;20706;-68
2021/12/18 04:29:18;;;;;;;6.50;5.90;;;16.90;42.60;;;;;;5038919;28;20568;-68
2021/12/18 04:31:46;;;;;;;5.85;5.35;;;16.90;42.50;;;;;;5038356;28;20191;-68
2021/12/18 04:34:14;;;;;;;6.85;6.25;;;16.90;42.50;;;;;;5084128;22;20219;-56
2021/12/18 04:36:42;;;;;;;5.63;5.22;;;16.90;42.30;;;;;;5037049;28;20283;-56
2021/12/18 04:39:09;;;;;;;6.20;5.70;;;17.00;42.40;;;;;;5036795;28;20215;-56
2021/12/18 04:41:48;;;;;;;5.75;5.25;;;17.00;42.30;;;;;;5036930;28;20192;-53
2021/12/18 04:44:15;;;;;;;5.63;5.05;;;17.00;42.30;;;;;;5036770;28;20195;-56
2021/12/18 04:46:42;;;;;;;5.70;5.20;;;17.00;42.50;;;;;;5036522;28;20219;-56
2021/12/18 04:49:09;;;;;;;6.13;5.60;;;17.10;42.30;;;;;;5036729;28;20259;-56
2021/12/18 04:51:38;;;;;;;5.75;5.25;;;17.10;42.20;;;;;;5054648;28;20639;-56
2021/12/18 04:54:05;;;;;;;5.35;4.85;;;17.10;42.20;;;;;;5054445;28;20194;-56
2021/12/18 04:56:32;;;;;;;5.13;4.72;;;17.10;42.20;;;;;;5036738;28;20196;-56
2021/12/18 04:58:59;;;;;;;5.82;5.38;;;17.10;42.00;;;;;;5036597;28;20226;-56
2021/12/18 05:01:27;;;;;;;5.03;4.63;;;17.10;42.20;;;;;;5036652;28;20195;-56
2021/12/18 05:03:55;;;;;;;5.63;5.13;;;17.10;42.10;;;;;;5054873;28;20214;-56
2021/12/18 05:06:23;;;;;;;5.30;4.80;;;17.10;42.00;;;;;;5045538;28;20623;-56
2021/12/18 05:08:51;;;;;;;4.97;4.57;;;17.10;42.10;;;;;;5045450;28;20237;-56
2021/12/18 05:11:18;;;;;;;5.10;4.70;;;17.10;42.10;;;;;;5062382;28;20191;-56
2021/12/18 05:13:46;;;;;;;5.05;4.65;;;17.10;42.20;;;;;;5058907;28;20207;-56
2021/12/18 05:16:13;;;;;;;4.68;4.28;;;17.10;42.20;;;;;;5038117;28;20221;-56
2021/12/18 05:18:41;;;;;;;4.40;4.10;;;17.10;42.30;;;;;;5053662;28;20283;-56
2021/12/18 05:21:10;;;;;;;4.70;4.30;;;17.10;42.40;;;;;;5036351;28;20200;-56
2021/12/18 05:23:37;;;;;;;4.95;4.55;;;17.10;42.30;;;;;;5054169;28;20726;-56
2021/12/18 05:26:06;;;;;;;4.80;4.40;;;17.10;42.30;;;;;;5036424;28;20223;-56
2021/12/18 05:28:33;;;;;;;5.32;4.90;;;17.10;42.10;;;;;;5036209;28;20220;-56
2021/12/18 05:31:01;;;;;;;5.28;4.78;;;17.10;42.10;;;;;;5036301;28;20286;-56
2021/12/18 05:33:28;;;;;;;4.68;4.28;;;17.10;41.90;;;;;;5054639;28;20248;-56
2021/12/18 05:35:55;;;;;;;4.18;3.88;;;17.10;41.90;;;;;;5054125;28;20195;-56
2021/12/18 05:38:23;;;;;;;4.28;3.97;;;17.10;42.10;;;;;;5036371;28;20246;-56
2021/12/18 05:40:50;;;;;;;5.13;4.72;;;17.20;42.10;;;;;;5036416;28;20286;-56
2021/12/18 05:43:18;;;;;;;4.88;4.47;;;17.20;41.90;;;;;;5054419;28;20188;-56
2021/12/18 05:45:46;;;;;;;4.68;4.28;;;17.20;42.00;;;;;;5036883;28;20195;-56
2021/12/18 05:48:14;;;;;;;5.30;4.80;;;17.20;41.90;;;;;;5054767;28;20239;-56
2021/12/18 05:50:45;;;;;;;5.22;4.82;;;17.20;41.70;;;;;;5036192;28;20191;-56
2021/12/18 05:53:13;;;;;;;5.22;4.82;;;17.20;41.90;;;;;;5036098;28;20298;-56
2021/12/18 05:55:41;;;;;;;4.95;4.55;;;17.30;41.80;;;;;;5053935;28;20187;-55
2021/12/18 05:58:08;;;;;;;4.35;4.05;;;17.30;41.80;;;;;;5054491;28;20219;-56
2021/12/18 06:00:39;;;;;;;4.72;4.32;;;17.30;41.70;;;;;;5053969;28;20187;-56
2021/12/18 06:03:06;;;;;;;5.10;4.70;;;17.30;41.60;;;;;;5036080;28;20187;-56
2021/12/18 06:05:34;;;;;;;5.05;4.65;;;17.30;41.70;;;;;;5053977;28;20188;-56
2021/12/18 06:08:04;;;;;;;4.95;4.55;;;17.30;41.60;;;;;;5036016;28;20224;-56
2021/12/18 06:10:33;;;;;;;4.43;4.10;;;17.30;41.70;;;;;;5053826;28;20245;-56
2021/12/18 06:13:02;;;;;;;4.35;4.05;;;17.30;41.70;;;;;;5035913;28;20203;-56
2021/12/18 06:15:30;;;;;;;4.43;4.03;;;17.30;41.80;;;;;;5035999;28;20199;-56
2021/12/18 06:17:58;;;;;;;4.57;4.18;;;17.30;41.70;;;;;;5035481;28;20382;-56
2021/12/18 06:20:26;;;;;;;4.57;4.18;;;17.30;41.60;;;;;;5035011;28;20195;-56
2021/12/18 06:22:53;;;;;;;4.70;4.30;;;17.40;41.50;;;;;;5052744;28;20191;-56
2021/12/18 06:25:21;;;;;;;4.32;3.97;;;17.40;41.40;;;;;;5037555;23;20348;-67
2021/12/18 06:27:48;;;;;;;5.00;4.60;;;17.40;41.70;;;;;;5012734;28;20224;-67
2021/12/18 06:30:17;;;;;;;4.40;4.00;;;17.40;41.50;;;;;;5014780;28;20200;-68
2021/12/18 06:32:45;;;;;;;4.65;4.25;;;17.40;41.60;;;;;;5020126;28;20251;-68
2021/12/18 06:35:13;;;;;;;4.47;4.07;;;17.40;41.50;;;;;;5018880;28;20216;-67
2021/12/18 06:37:41;;;;;;;4.25;3.90;;;17.50;41.50;;;;;;5018967;28;20292;-67
2021/12/18 06:40:08;;;;;;;4.47;4.07;;;17.50;41.50;;;;;;5020470;28;20191;-67
2021/12/18 06:42:36;;;;;;;4.10;3.80;;;17.40;41.40;;;;;;5018781;28;20200;-68
2021/12/18 06:45:03;;;;;;;4.63;4.22;;;17.50;41.50;;;;;;5018859;28;20271;-67
2021/12/18 06:47:30;;;;;;;4.35;4.05;;;17.40;41.40;;;;;;5019097;28;20243;-66
2021/12/18 06:49:57;;;;;;;3.92;3.63;;;17.50;41.60;;;;;;5018936;28;20196;-67
2021/12/18 06:52:26;;;;;;;4.65;4.25;;;17.40;41.40;;;;;;5018937;28;20204;-67
2021/12/18 06:54:53;;;;;;;4.47;4.07;;;17.40;41.50;;;;;;5018822;28;20217;-67
2021/12/18 06:57:22;;;;;;;4.40;4.05;;;17.50;41.50;;;;;;5054686;23;20226;-63
2021/12/18 06:59:49;;;;;;;4.10;3.80;;;17.50;41.50;;;;;;5077785;28;20272;-64
2021/12/18 07:02:17;;;;;;;4.38;3.97;;;17.50;41.40;;;;;;5077551;28;20732;-64
2021/12/18 07:04:44;;;;;;;4.32;4.03;;;17.50;41.50;;;;;;5078813;28;20229;-64
2021/12/18 07:07:11;;;;;;;4.32;3.92;;;17.50;41.50;;;;;;5060689;28;20226;-64
2021/12/18 07:09:40;;;;;;;4.60;4.20;;;17.50;41.30;;;;;;5060834;28;20190;-64
2021/12/18 07:12:10;;;;;;;4.85;4.35;;;17.50;41.30;;;;;;5077591;28;20203;-65
2021/12/18 07:14:38;;;;;;;4.63;4.22;;;17.50;41.20;;;;;;5060674;28;20195;-64
2021/12/18 07:17:05;;;;;;;4.00;3.70;;;17.50;41.00;;;;;;5078822;28;20179;-64
2021/12/18 07:19:33;;;;;;;4.30;3.90;;;17.50;42.00;;;;;;5078863;28;20673;-64
2021/12/18 07:22:00;;;;;;;4.95;4.55;;;17.50;41.30;;;;;;5060764;28;20195;-63
2021/12/18 07:24:27;;;;;;;4.60;3.75;;;17.50;41.30;;;;;;5077218;28;20194;-64
2021/12/18 07:26:56;;;;;;;4.55;4.15;;;17.50;41.50;;;;;;5079227;28;20218;-64
2021/12/18 07:29:24;;;;;;;4.45;4.13;;;17.50;41.30;;;;;;5079040;28;20564;-64
2021/12/18 07:31:51;;;;;;;4.95;4.47;;;17.50;41.30;;;;;;5078900;28;20205;-64
2021/12/18 07:34:18;;;;;;;4.68;4.20;;;17.60;41.40;;;;;;5060672;28;20208;-64
2021/12/18 07:36:45;;;;;;;4.55;4.15;;;17.60;41.40;;;;;;5078531;28;20195;-63
2021/12/18 07:39:13;;;;;;;5.20;4.70;;;17.60;41.30;;;;;;5077233;28;20275;-63
2021/12/18 07:41:40;;;;;;;4.53;4.13;;;17.60;41.30;;;;;;5077130;28;20199;-64
2021/12/18 07:44:10;;;;;;;4.20;3.80;;;17.60;41.30;;;;;;5074229;28;20633;-64
2021/12/18 07:46:37;;;;;;;4.22;3.92;;;17.60;41.30;;;;;;5057461;28;20825;-64
2021/12/18 07:49:05;;;;;;;4.78;4.38;;;17.60;41.50;;;;;;5057397;28;20242;-64
2021/12/18 07:51:32;;;;;;;5.40;4.80;;;17.70;41.40;;;;;;5074064;28;20285;-63
2021/12/18 07:53:59;;;;;;;4.43;4.03;;;17.60;41.30;;;;;;5075490;28;20192;-64
2021/12/18 07:56:27;;;;;;;4.45;4.05;;;17.60;41.30;;;;;;5057773;28;20195;-64
2021/12/18 07:58:54;;;;;;;4.50;4.10;;;17.70;41.40;;;;;;5075147;28;20565;-64
2021/12/18 08:01:23;;;;;;;4.15;3.75;;;17.70;41.50;;;;;;5073854;28;20635;-64
2021/12/18 08:03:50;;;;;;;4.55;4.15;;;17.70;41.50;;;;;;5075505;28;20622;-64
2021/12/18 08:06:19;;;;;;;4.22;3.92;;;17.70;41.20;;;;;;5075429;28;20289;-64
2021/12/18 08:08:46;;;;;;;5.07;4.57;;;17.80;41.40;;;;;;5073881;28;20730;-64
2021/12/18 08:11:13;;;;;;;4.20;3.90;;;17.80;41.20;;;;;;5073779;28;20221;-64
2021/12/18 08:13:41;;;;;;;4.35;3.95;;;17.80;41.30;;;;;;5073608;28;20658;-64
2021/12/18 08:16:08;;;;;;;4.90;4.50;;;17.80;41.20;;;;;;5057050;28;20206;-64
2021/12/18 08:18:39;;;;;;;4.32;4.00;;;17.80;41.10;;;;;;5074915;28;20689;-64
2021/12/18 08:21:07;;;;;;;5.22;4.68;;;17.80;41.20;;;;;;5074171;28;20252;-63
2021/12/18 08:23:35;;;;;;;4.82;4.30;;;17.80;41.00;;;;;;5056908;28;20289;-64
2021/12/18 08:26:02;;;;;;;4.95;4.53;;;17.80;41.00;;;;;;5074986;28;20623;-64
2021/12/18 08:28:29;;;;;;;5.25;3.92;;;17.80;41.60;;;;;;5075232;28;20702;-64
2021/12/18 08:30:57;;;;;;;5.03;4.40;;;17.80;41.10;;;;;;5075610;28;20202;-64
2021/12/18 08:33:24;;;;;;;5.15;4.65;;;17.80;41.00;;;;;;5074517;28;20812;-63
2021/12/18 08:35:53;;;;;;;4.47;4.07;;;17.80;40.90;;;;;;5058476;28;20562;-64
2021/12/18 08:38:20;;;;;;;4.30;3.90;;;17.90;41.10;;;;;;5074305;28;20317;-64
2021/12/18 08:40:49;;;;;;;4.82;4.43;;;17.90;41.00;;;;;;5074220;28;20234;-64
2021/12/18 08:43:17;;;;;;;4.38;3.97;;;17.90;41.10;;;;;;5075027;28;20186;-64
2021/12/18 08:45:44;;;;;;;5.15;4.75;;;17.90;41.00;;;;;;5073305;28;20201;-63
2021/12/18 08:48:11;;;;;;;4.88;4.32;;;17.90;41.10;;;;;;5073168;28;20246;-64
2021/12/18 08:50:39;;;;;;;3.88;3.58;;;18.00;41.00;;;;;;5073544;28;20577;-64
2021/12/18 08:53:07;;;;;;;4.60;4.20;;;17.90;40.80;;;;;;5073843;28;20197;-64
2021/12/18 08:55:35;;;;;;;4.50;4.10;;;17.90;40.80;;;;;;5073629;28;20221;-64
2021/12/18 08:58:02;;;;;;;4.40;4.00;;;18.00;40.70;;;;;;5056164;28;20629;-64
2021/12/18 09:00:30;;;;;;;4.50;4.15;;;18.00;40.70;;;;;;5055867;28;20195;-65
2021/12/18 09:02:59;;;;;;;4.80;4.40;;;18.00;40.80;;;;;;5073927;28;20229;-65
2021/12/18 09:05:26;;;;;;;4.18;3.88;;;18.00;40.60;;;;;;5072446;28;20639;-65
2021/12/18 09:07:53;;;;;;;3.45;3.25;;;18.00;40.70;;;;;;5055999;28;20272;-65
2021/12/18 09:10:23;;;;;;;4.80;4.35;;;18.00;40.60;;;;;;5072509;28;20199;-65
2021/12/18 09:12:50;;;;;;;4.20;3.80;;;18.00;40.50;;;;;;5074090;28;20198;-65
2021/12/18 09:15:17;;;;;;;3.92;3.63;;;18.00;40.60;;;;;;5073485;28;20195;-65
2021/12/18 09:17:45;;;;;;;4.05;3.65;;;18.10;40.80;;;;;;5074797;28;20202;-65
2021/12/18 09:20:13;;;;;;;4.15;3.85;;;18.00;40.50;;;;;;5055693;28;20258;-65
2021/12/18 09:22:40;;;;;;;4.00;3.70;;;18.00;40.50;;;;;;5073652;28;20199;-65
2021/12/18 09:25:08;;;;;;;4.28;3.97;;;18.10;40.60;;;;;;5072169;28;20252;-65
2021/12/18 09:27:37;;;;;;;3.70;3.42;;;18.10;40.30;;;;;;5055293;28;20227;-65
2021/12/18 09:30:06;;;;;;;4.43;4.03;;;18.10;40.30;;;;;;5072088;28;20285;-65
2021/12/18 09:32:33;;;;;;;4.10;3.80;;;18.10;40.90;;;;;;5073040;28;20612;-65
2021/12/18 09:35:00;;;;;;;4.95;4.60;;;18.10;40.30;;;;;;5071760;28;20265;-65
2021/12/18 09:37:27;;;;;;;4.50;4.10;;;18.10;39.90;;;;;;5073184;28;20215;-65
2021/12/18 09:39:55;;;;;;;4.15;3.80;;;18.10;40.00;;;;;;5073068;28;20194;-65
2021/12/18 09:42:22;;;;;;;4.32;3.92;;;18.10;40.10;;;;;;5073023;28;20194;-65
2021/12/18 09:44:51;;;;;;;3.85;3.45;;;18.20;40.60;;;;;;5055011;28;20237;-65
2021/12/18 09:47:19;;;;;;;4.25;3.95;;;18.20;40.80;;;;;;5073186;28;20214;-65
2021/12/18 09:49:46;;;;;;;3.90;3.60;;;18.10;40.10;;;;;;5054972;28;20194;-65
2021/12/18 09:52:13;;;;;;;4.45;4.05;;;18.10;40.20;;;;;;5071824;28;20194;-65
2021/12/18 09:54:40;;;;;;;4.53;4.13;;;18.10;40.20;;;;;;5071492;28;20573;-65
2021/12/18 09:57:09;;;;;;;4.50;4.10;;;18.10;40.30;;;;;;5071552;28;20255;-65
2021/12/18 09:59:36;;;;;;;4.70;4.30;;;18.10;40.20;;;;;;5054858;28;20203;-65
2021/12/18 10:02:05;;;;;;;4.20;3.80;;;18.10;40.20;;;;;;5072948;28;20218;-65
2021/12/18 10:04:33;;;;;;;4.32;3.92;;;18.10;40.30;;;;;;5054349;28;20293;-65
2021/12/18 10:07:02;;;;;;;3.80;3.50;;;18.10;40.20;;;;;;5072653;28;20536;-65
2021/12/18 10:09:34;;;;;;;3.60;3.30;;;18.10;40.30;;;;;;5071409;28;20237;-65
2021/12/18 10:12:05;;;;;;;3.85;3.55;;;18.10;40.30;;;;;;5072606;28;20693;-65
2021/12/18 10:14:35;;;;;;;3.50;3.20;;;18.10;40.20;;;;;;5054416;28;20364;-65
2021/12/18 10:17:02;;;;;;;3.72;3.42;;;18.10;40.20;;;;;;5054511;28;20190;-65
2021/12/18 10:19:31;;;;;;;4.03;3.72;;;18.20;40.20;;;;;;5072653;28;20191;-65
2021/12/18 10:22:00;;;;;;;3.60;3.30;;;18.20;40.00;;;;;;5072467;28;20272;-65
2021/12/18 10:24:28;;;;;;;3.60;3.30;;;18.20;40.10;;;;;;5072491;28;20198;-64
2021/12/18 10:26:55;;;;;;;3.97;3.67;;;18.20;39.80;;;;;;5070886;28;20693;-65
2021/12/18 10:29:28;;;;;;;3.63;3.33;;;18.20;39.90;;;;;;5072337;28;20215;-65
2021/12/18 10:31:57;;;;;;;3.90;3.60;;;18.30;39.90;;;;;;5072151;28;20194;-65
2021/12/18 10:34:24;;;;;;;3.40;3.15;;;18.30;39.90;;;;;;5072309;28;20269;-65
2021/12/18 10:37:17;;;;;;;4.00;3.70;;;18.30;39.90;;;;;;5071152;28;20210;-65
2021/12/18 10:39:45;;;;;;;3.72;3.42;;;18.30;39.80;;;;;;5071178;28;20285;-65
2021/12/18 10:42:20;;;;;;;3.65;3.35;;;18.30;39.90;;;;;;5054316;28;20199;-65
2021/12/18 10:45:01;;;;;;;3.97;3.67;;;18.30;39.70;;;;;;5071315;28;20197;-64
2021/12/18 10:47:43;;;;;;;3.78;3.47;;;18.40;39.80;;;;;;5071248;28;20288;-64
2021/12/18 10:50:16;;;;;;;4.00;3.30;;;18.30;39.90;;;;;;5054916;28;20202;-64
2021/12/18 10:52:45;;;;;;;3.55;3.25;;;18.40;40.00;;;;;;5072309;28;20659;-64
2021/12/18 10:55:12;;;;;;;3.85;3.55;;;18.40;40.00;;;;;;5071057;28;20199;-64
2021/12/18 10:57:44;;;;;;;4.30;4.00;;;18.40;39.60;;;;;;5071931;28;20222;-64
2021/12/18 11:00:13;;;;;;;3.88;3.58;;;18.40;39.60;;;;;;5072391;28;20186;-64
2021/12/18 11:02:41;;;;;;;3.70;3.40;;;18.40;39.80;;;;;;5072487;28;20202;-64
2021/12/18 11:05:16;;;;;;;4.03;3.72;;;18.40;39.60;;;;;;5054133;28;20663;-64
2021/12/18 11:07:46;;;;;;;3.50;3.20;;;18.40;39.70;;;;;;5070685;28;20309;-64
2021/12/18 11:10:40;;;;;;;3.70;3.40;;;18.40;39.70;;;;;;5072139;28;20210;-64
2021/12/18 11:15:52;;;;;;;3.97;3.60;;;18.40;39.60;;;;;;5072359;28;20199;-64
2021/12/18 11:18:20;;;;;;;3.88;3.58;;;18.40;39.60;;;;;;5074925;28;20207;-64
2021/12/18 11:20:49;;;;;;;4.18;3.88;;;18.50;39.40;;;;;;5057867;28;20198;-64
2021/12/18 11:23:16;;;;;;;3.83;3.53;;;18.50;39.50;;;;;;5057998;28;20275;-64
2021/12/18 11:25:45;;;;;;;3.58;3.20;;;18.50;39.60;;;;;;5074359;28;20202;-64
2021/12/18 11:28:13;;;;;;;3.45;3.22;;;18.50;39.80;;;;;;5075694;28;20257;-64
2021/12/18 11:30:40;;;;;;;4.18;3.78;;;18.50;39.60;;;;;;5074429;28;20209;-64
2021/12/18 11:33:07;;;;;;;4.10;3.80;;;18.50;39.50;;;;;;5074426;28;20651;-64
2021/12/18 11:35:36;;;;;;;3.20;2.97;;;18.50;39.40;;;;;;5075867;28;20194;-64
2021/12/18 11:38:07;;;;;;;3.95;3.65;;;18.50;39.40;;;;;;5074280;28;20278;-64
2021/12/18 11:40:36;;;;;;;3.25;3.05;;;18.50;39.40;;;;;;5074198;28;20193;-64
2021/12/18 11:43:08;;;;;;;3.60;3.30;;;18.60;39.40;;;;;;5075612;28;20558;-64
2021/12/18 11:45:36;;;;;;;3.70;3.40;;;18.60;39.50;;;;;;5075608;28;20265;-63
2021/12/18 11:48:04;;;;;;;3.92;3.63;;;18.60;40.00;;;;;;5073980;28;20297;-64
2021/12/18 11:50:32;;;;;;;4.40;4.00;;;18.60;39.40;;;;;;5057347;28;20203;-63
2021/12/18 11:53:01;;;;;;;4.03;3.72;;;18.60;39.90;;;;;;5058170;28;20578;-64
2021/12/18 11:55:29;;;;;;;4.28;3.92;;;18.60;39.20;;;;;;5074697;28;20198;-64
2021/12/18 11:57:58;;;;;;;3.88;3.55;;;18.60;39.20;;;;;;5076634;28;20226;-64
2021/12/18 12:00:36;;;;;;;4.20;3.90;;;18.60;39.30;;;;;;5077411;28;20191;-64
2021/12/18 12:03:04;;;;;;;4.63;4.22;;;18.60;39.50;;;;;;5082792;28;20178;-64
2021/12/18 12:05:33;;;;;;;4.35;3.95;;;18.60;39.30;;;;;;5076028;28;20193;-64
2021/12/18 12:08:22;;;;;;;3.80;3.50;;;18.60;39.40;;;;;;5074942;28;20678;-64
2021/12/18 12:11:18;;;;;;;3.58;3.30;;;18.60;39.40;;;;;;5074973;28;20183;-64
2021/12/18 12:14:08;;;;;;;4.05;3.75;;;18.60;39.50;;;;;;5074809;28;20183;-64
2021/12/18 12:17:01;;;;;;;4.47;4.07;;;18.60;39.40;;;;;;5074954;28;20187;-64
2021/12/18 12:19:59;;;;;;;4.10;3.70;;;18.60;39.40;;;;;;5073328;28;20198;-64
2021/12/18 12:22:36;;;;;;;3.70;3.40;;;18.60;39.20;;;;;;5073219;28;20190;-63
2021/12/18 12:25:04;;;;;;;4.35;4.00;;;18.60;39.30;;;;;;5074618;28;20197;-64
2021/12/18 12:27:32;;;;;;;4.03;3.72;;;18.60;39.50;;;;;;5074096;28;20299;-64
2021/12/18 12:30:04;;;;;;;4.45;4.07;;;18.60;39.40;;;;;;5074320;28;20217;-64
2021/12/18 12:32:32;;;;;;;4.03;3.72;;;18.70;39.20;;;;;;5056333;28;20611;-64
2021/12/18 12:35:01;;;;;;;4.30;3.90;;;18.70;39.60;;;;;;5074545;28;20626;-64
2021/12/18 12:37:34;;;;;;;4.25;3.95;;;18.70;39.40;;;;;;5074156;28;20298;-64
2021/12/18 12:40:03;;;;;;;4.07;3.78;;;18.70;39.50;;;;;;5074250;28;20220;-64
2021/12/18 12:42:30;;;;;;;4.22;3.92;;;18.70;39.30;;;;;;5074045;28;20214;-64
2021/12/18 12:44:59;;;;;;;3.92;3.63;;;18.70;39.10;;;;;;5074103;28;20281;-64
2021/12/18 12:47:27;;;;;;;4.13;3.80;;;18.80;39.30;;;;;;5072701;28;20630;-64
2021/12/18 12:49:57;;;;;;;4.03;3.72;;;18.80;39.20;;;;;;5055886;28;20747;-64
2021/12/18 12:52:27;;;;;;;4.32;4.03;;;18.80;39.20;;;;;;5055879;28;20186;-64
2021/12/18 12:54:59;;;;;;;3.72;3.42;;;18.80;38.80;;;;;;5074073;28;20183;-64
2021/12/18 12:57:51;;;;;;;4.10;3.80;;;18.80;39.20;;;;;;5089389;22;20229;-69
2021/12/18 13:00:41;;;;;;;4.30;3.92;;;18.80;39.00;;;;;;5057296;28;20205;-69
2021/12/18 13:03:23;;;;;;;3.70;3.40;;;18.80;39.70;;;;;;5057967;28;20282;-68
2021/12/18 13:06:01;;;;;;;3.80;3.50;;;18.80;39.20;;;;;;5057097;28;20606;-68
2021/12/18 13:08:29;;;;;;;4.20;3.80;;;18.80;39.20;;;;;;5056542;28;20359;-68
2021/12/18 13:10:59;;;;;;;4.35;3.95;;;18.80;39.20;;;;;;5058790;28;20191;-69
2021/12/18 13:13:28;;;;;;;3.78;3.47;;;18.80;39.10;;;;;;5057733;28;20252;-70
2021/12/18 13:15:57;;;;;;;3.83;3.53;;;18.80;39.10;;;;;;5074636;28;20269;-70
2021/12/18 13:18:26;;;;;;;4.28;3.88;;;18.80;39.00;;;;;;5056293;28;20206;-69
2021/12/18 13:20:55;;;;;;;4.20;3.90;;;18.80;39.10;;;;;;5074416;28;20492;-69
2021/12/18 13:23:37;;;;;;;4.28;3.90;;;18.90;39.10;;;;;;5056352;28;20194;-69
2021/12/18 13:26:04;;;;;;;4.10;3.80;;;18.80;39.00;;;;;;5056290;28;20258;-69
2021/12/18 13:28:31;;;;;;;4.20;3.90;;;18.90;39.10;;;;;;5074369;28;20214;-69
2021/12/18 13:30:58;;;;;;;4.05;3.75;;;18.90;38.90;;;;;;5056460;28;20225;-69
2021/12/18 13:33:26;;;;;;;3.83;3.53;;;18.90;38.90;;;;;;5056030;28;20293;-69